createdAt,value
2024-02-23T00:01:09.654Z,0.88
2024-02-23T00:03:37.931Z,0.93
2024-02-23T00:06:05.196Z,0.78
2024-02-23T00:08:32.040Z,1.05
2024-02-23T00:10:58.987Z,0.86
2024-02-23T00:13:25.642Z,1.01
2024-02-23T00:15:53.012Z,0.82
2024-02-23T00:18:20.082Z,0.87
2024-02-23T00:20:48.115Z,0.83
2024-02-23T00:23:14.897Z,0.76
2024-02-23T00:25:42.325Z,0.54
2024-02-23T00:28:09.804Z,0.78
2024-02-23T00:30:37.099Z,0.66
2024-02-23T00:33:04.430Z,0.68
2024-02-23T00:35:31.492Z,0.64
2024-02-23T00:37:58.227Z,0.58
2024-02-23T00:40:25.152Z,0.44
2024-02-23T00:42:51.860Z,0.50
2024-02-23T00:45:18.867Z,0.59
2024-02-23T00:47:47.984Z,0.39
2024-02-23T00:50:15.596Z,0.35
2024-02-23T00:52:42.528Z,0.48
2024-02-23T00:55:09.850Z,0.61
2024-02-23T00:57:37.822Z,0.55
2024-02-23T01:00:06.468Z,0.39
2024-02-23T01:02:34.906Z,0.35
2024-02-23T01:05:01.814Z,0.35
2024-02-23T01:07:29.063Z,0.42
2024-02-23T01:09:56.015Z,0.56
2024-02-23T01:12:23.035Z,0.46
2024-02-23T01:14:49.872Z,0.43
2024-02-23T01:17:16.751Z,0.41
2024-02-23T01:19:45.571Z,0.49
2024-02-23T01:22:12.333Z,0.51
2024-02-23T01:24:39.105Z,0.51
2024-02-23T01:27:05.781Z,0.47
2024-02-23T01:29:32.500Z,0.47
2024-02-23T01:31:59.912Z,0.42
2024-02-23T01:34:26.868Z,0.38
2024-02-23T01:36:53.663Z,0.52
2024-02-23T01:39:20.290Z,0.45
2024-02-23T01:41:47.086Z,0.68
2024-02-23T01:44:13.630Z,0.73
2024-02-23T01:46:40.438Z,0.55
2024-02-23T01:49:10.261Z,0.45
2024-02-23T01:51:37.484Z,0.52
2024-02-23T01:54:05.097Z,0.60
2024-02-23T01:56:34.165Z,0.59
2024-02-23T01:59:04.475Z,0.58
2024-02-23T02:01:32.454Z,0.63
2024-02-23T02:04:00.230Z,0.70
2024-02-23T02:06:27.152Z,0.73
2024-02-23T02:08:55.164Z,0.58
2024-02-23T02:11:22.314Z,0.81
2024-02-23T02:13:48.996Z,0.62
2024-02-23T02:16:15.683Z,0.70
2024-02-23T02:18:42.279Z,0.83
2024-02-23T02:21:09.016Z,0.70
2024-02-23T02:23:35.755Z,0.73
2024-02-23T02:26:02.344Z,0.70
2024-02-23T02:28:29.029Z,0.90
2024-02-23T02:30:55.815Z,0.88
2024-02-23T02:33:23.466Z,0.99
2024-02-23T02:35:51.088Z,0.92
2024-02-23T02:38:17.835Z,1.01
2024-02-23T02:40:44.691Z,0.75
2024-02-23T02:43:11.695Z,0.91
2024-02-23T02:45:38.699Z,0.89
2024-02-23T02:48:05.763Z,0.90
2024-02-23T02:50:32.747Z,0.96
2024-02-23T02:52:59.619Z,0.96
2024-02-23T02:55:26.219Z,0.89
2024-02-23T02:57:52.831Z,0.89
2024-02-23T03:00:19.422Z,0.88
2024-02-23T03:02:46.024Z,0.96
2024-02-23T03:05:12.698Z,0.94
2024-02-23T03:07:39.354Z,0.87
2024-02-23T03:10:06.977Z,0.99
2024-02-23T03:12:33.913Z,0.94
2024-02-23T03:15:00.771Z,0.97
2024-02-23T03:17:27.402Z,0.90
2024-02-23T03:19:54.367Z,1.13
2024-02-23T03:22:21.315Z,1.21
2024-02-23T03:24:47.925Z,1.13
2024-02-23T03:27:14.588Z,1.32
2024-02-23T03:29:41.824Z,1.25
2024-02-23T03:32:09.271Z,1.02
2024-02-23T03:34:37.561Z,1.37
2024-02-23T03:37:04.421Z,1.29
2024-02-23T03:39:31.133Z,1.15
2024-02-23T03:41:57.709Z,1.28
2024-02-23T03:44:24.683Z,1.28
2024-02-23T03:46:51.539Z,1.49
2024-02-23T03:49:18.501Z,1.50
2024-02-23T03:51:45.483Z,1.50
2024-02-23T03:54:12.137Z,1.30
2024-02-23T03:56:42.371Z,1.21
2024-02-23T03:59:11.071Z,1.24
2024-02-23T04:01:40.395Z,1.34
2024-02-23T04:04:07.626Z,1.01
2024-02-23T04:06:35.632Z,1.24
2024-02-23T04:09:06.077Z,1.22
2024-02-23T04:11:33.448Z,1.27
2024-02-23T04:14:01.505Z,1.19
2024-02-23T04:16:29.163Z,1.17
2024-02-23T04:18:57.224Z,1.21
2024-02-23T04:21:23.818Z,1.50
2024-02-23T04:23:50.388Z,1.32
2024-02-23T04:26:16.923Z,1.33
2024-02-23T04:28:44.077Z,1.46
2024-02-23T04:31:11.247Z,1.46
2024-02-23T04:33:39.346Z,1.46
2024-02-23T04:36:06.909Z,1.35
2024-02-23T04:38:33.980Z,1.41
2024-02-23T04:41:05.673Z,1.39
2024-02-23T04:43:32.968Z,1.49
2024-02-23T04:45:59.555Z,1.77
2024-02-23T04:48:26.156Z,1.31
2024-02-23T04:50:52.877Z,1.71
2024-02-23T04:53:20.462Z,1.68
2024-02-23T04:55:47.075Z,1.66
2024-02-23T04:58:13.644Z,1.72
2024-02-23T05:00:40.478Z,1.60
2024-02-23T05:03:08.432Z,1.27
2024-02-23T05:05:36.909Z,1.50
2024-02-23T05:08:04.209Z,1.71
2024-02-23T05:10:30.771Z,1.50
2024-02-23T05:12:57.349Z,1.45
2024-02-23T05:15:23.990Z,1.27
2024-02-23T05:17:50.904Z,1.50
2024-02-23T05:20:17.621Z,1.67
2024-02-23T05:22:44.182Z,1.33
2024-02-23T05:25:10.723Z,1.18
2024-02-23T05:27:37.302Z,1.52
2024-02-23T05:30:05.304Z,1.81
2024-02-23T05:32:31.943Z,1.36
2024-02-23T05:34:58.764Z,1.44
2024-02-23T05:37:25.795Z,1.22
2024-02-23T05:39:52.857Z,1.13
2024-02-23T05:42:19.500Z,1.34
2024-02-23T05:44:49.402Z,1.39
2024-02-23T05:47:16.179Z,1.61
2024-02-23T05:49:42.813Z,1.46
2024-02-23T05:52:10.564Z,1.22
2024-02-23T05:54:37.358Z,1.56
2024-02-23T05:57:04.319Z,1.70
2024-02-23T05:59:31.045Z,1.58
2024-02-23T06:01:58.870Z,1.62
2024-02-23T06:04:26.275Z,1.42
2024-02-23T06:06:53.082Z,1.46
2024-02-23T06:09:20.260Z,1.73
2024-02-23T06:11:47.884Z,1.56
2024-02-23T06:14:15.242Z,1.35
2024-02-23T06:16:41.973Z,1.26
2024-02-23T06:19:09.501Z,1.38
2024-02-23T06:21:36.288Z,1.65
2024-02-23T06:24:03.701Z,1.53
2024-02-23T06:26:30.375Z,3.51
2024-02-23T06:28:57.136Z,1.82
2024-02-23T06:31:23.731Z,1.81
2024-02-23T06:33:52.356Z,1.70
2024-02-23T06:36:19.643Z,2.20
2024-02-23T06:38:46.675Z,4.68
2024-02-23T06:41:13.608Z,2.79
2024-02-23T06:43:40.381Z,2.69
2024-02-23T06:46:09.792Z,3.01
2024-02-23T06:48:38.301Z,1.91
2024-02-23T06:51:11.193Z,3.70
2024-02-23T06:53:39.307Z,1.75
2024-02-23T06:56:06.763Z,1.51
2024-02-23T06:58:33.518Z,1.60
2024-02-23T07:01:01.278Z,1.85
2024-02-23T07:03:28.059Z,1.55
2024-02-23T07:05:54.901Z,1.51
2024-02-23T07:08:21.609Z,1.69
2024-02-23T07:10:48.252Z,2.12
2024-02-23T07:13:15.236Z,1.76
2024-02-23T07:15:42.244Z,1.48
2024-02-23T07:18:09.742Z,1.73
2024-02-23T07:20:38.343Z,1.45
2024-02-23T07:23:06.203Z,1.33
2024-02-23T07:25:32.822Z,1.55
2024-02-23T07:27:59.541Z,1.82
2024-02-23T07:30:26.231Z,1.54
2024-02-23T07:32:53.748Z,1.36
2024-02-23T07:35:20.750Z,1.72
2024-02-23T07:37:47.768Z,1.75
2024-02-23T07:40:16.606Z,1.62
2024-02-23T07:42:44.833Z,1.77
2024-02-23T07:45:11.985Z,3.42
2024-02-23T07:47:38.874Z,2.05
2024-02-23T07:50:06.420Z,1.99
2024-02-23T07:52:33.286Z,1.75
2024-02-23T07:55:01.317Z,2.40
2024-02-23T07:57:28.035Z,2.24
2024-02-23T07:59:54.723Z,2.09
2024-02-23T08:02:21.294Z,2.08
2024-02-23T08:04:48.900Z,1.72
2024-02-23T08:07:15.942Z,1.89
2024-02-23T08:09:42.584Z,1.80
2024-02-23T08:12:09.848Z,1.95
2024-02-23T08:14:36.702Z,2.06
2024-02-23T08:17:03.961Z,1.83
2024-02-23T08:19:30.660Z,2.57
2024-02-23T08:21:58.542Z,2.82
2024-02-23T08:24:27.393Z,3.04
2024-02-23T08:26:54.854Z,2.18
2024-02-23T08:29:21.825Z,2.67
2024-02-23T08:31:49.003Z,1.99
2024-02-23T08:34:15.635Z,2.04
2024-02-23T08:36:42.247Z,2.31
2024-02-23T08:39:10.042Z,1.76
2024-02-23T08:41:37.004Z,1.52
2024-02-23T08:44:04.037Z,1.70
2024-02-23T08:46:30.696Z,1.82
2024-02-23T08:48:57.303Z,1.73
2024-02-23T08:51:23.916Z,1.90
2024-02-23T08:53:50.688Z,1.72
2024-02-23T08:56:17.422Z,2.01
2024-02-23T08:58:44.239Z,1.69
2024-02-23T09:01:11.008Z,2.26
2024-02-23T09:03:37.579Z,2.37
2024-02-23T09:06:05.091Z,1.97
2024-02-23T09:08:31.947Z,2.37
2024-02-23T09:10:59.206Z,2.21
2024-02-23T09:13:27.634Z,2.21
2024-02-23T09:15:54.398Z,2.48
2024-02-23T09:18:21.455Z,2.00
2024-02-23T09:20:48.458Z,2.05
2024-02-23T09:23:15.513Z,1.70
2024-02-23T09:25:44.250Z,1.90
2024-02-23T09:28:12.439Z,1.87
2024-02-23T09:30:39.559Z,2.02
2024-02-23T09:33:06.678Z,1.98
2024-02-23T09:35:33.546Z,1.95
2024-02-23T09:38:00.363Z,1.95
2024-02-23T09:40:27.826Z,2.00
2024-02-23T09:43:00.339Z,1.88
2024-02-23T09:45:28.773Z,1.93
2024-02-23T09:47:59.367Z,2.04
2024-02-23T09:50:26.664Z,2.15
2024-02-23T09:52:53.643Z,2.10
2024-02-23T09:55:23.369Z,2.08
2024-02-23T09:57:59.184Z,2.06
2024-02-23T10:00:26.731Z,1.98
2024-02-23T10:02:55.837Z,1.80
2024-02-23T10:05:35.749Z,1.89
2024-02-23T10:08:05.194Z,1.86
2024-02-23T10:10:34.932Z,2.06
2024-02-23T10:13:02.820Z,2.24
2024-02-23T10:15:31.682Z,2.12
2024-02-23T10:17:58.428Z,2.10
2024-02-23T10:20:25.048Z,1.85
2024-02-23T10:22:53.980Z,2.09
2024-02-23T10:25:20.933Z,1.94
2024-02-23T10:27:47.505Z,2.16
2024-02-23T10:30:16.517Z,1.92
2024-02-23T10:32:44.550Z,2.38
2024-02-23T10:35:17.425Z,2.23
2024-02-23T10:37:49.849Z,2.07
2024-02-23T10:40:19.018Z,1.90
2024-02-23T10:42:51.474Z,2.02
2024-02-23T10:45:21.076Z,2.02
2024-02-23T10:47:51.028Z,2.08
2024-02-23T10:50:20.972Z,1.78
2024-02-23T10:52:47.866Z,1.86
2024-02-23T10:55:16.203Z,1.72
2024-02-23T10:57:43.029Z,1.74
2024-02-23T11:00:11.755Z,1.71
2024-02-23T11:02:48.664Z,1.52
2024-02-23T11:05:17.644Z,1.68
2024-02-23T11:07:50.212Z,1.37
2024-02-23T11:10:17.935Z,1.65
2024-02-23T11:12:45.246Z,1.68
2024-02-23T11:15:29.048Z,1.80
2024-02-23T11:17:56.734Z,1.85
2024-02-23T11:20:30.477Z,1.91
2024-02-23T11:22:59.687Z,1.78
2024-02-23T11:25:30.739Z,1.85
2024-02-23T11:27:57.346Z,1.54
2024-02-23T11:30:23.968Z,1.72
2024-02-23T11:32:59.158Z,1.62
2024-02-23T11:35:28.666Z,1.78
2024-02-23T11:38:02.773Z,1.62
2024-02-23T11:40:31.777Z,1.44
2024-02-23T11:43:01.415Z,1.78
2024-02-23T11:45:31.876Z,1.70
2024-02-23T11:47:58.706Z,1.49
2024-02-23T11:50:25.493Z,1.34
2024-02-23T11:52:52.486Z,1.34
2024-02-23T11:55:23.655Z,1.67
2024-02-23T11:57:58.693Z,1.36
2024-02-23T12:00:32.125Z,1.42
2024-02-23T12:02:58.854Z,1.27
2024-02-23T12:05:25.429Z,1.22
2024-02-23T12:07:52.969Z,1.09
2024-02-23T12:10:20.157Z,1.25
2024-02-23T12:12:47.287Z,1.14
2024-02-23T12:15:14.140Z,1.21
2024-02-23T12:17:49.901Z,1.33
2024-02-23T12:20:17.279Z,1.56
2024-02-23T12:22:45.125Z,1.22
2024-02-23T12:25:13.999Z,1.45
2024-02-23T12:27:40.993Z,1.28
2024-02-23T12:30:16.099Z,1.17
2024-02-23T12:32:43.309Z,1.35
2024-02-23T12:35:13.760Z,1.41
2024-02-23T12:37:44.525Z,1.11
2024-02-23T12:40:12.575Z,1.49
2024-02-23T12:42:39.340Z,1.26
2024-02-23T12:45:06.388Z,1.12
2024-02-23T12:47:33.023Z,1.46
2024-02-23T12:49:59.637Z,1.44
2024-02-23T12:52:26.809Z,1.37
2024-02-23T12:54:53.330Z,1.37
2024-02-23T12:57:19.912Z,1.49
2024-02-23T12:59:46.667Z,1.81
2024-02-23T13:02:13.555Z,1.66
2024-02-23T13:04:40.345Z,3.37
2024-02-23T13:07:07.222Z,1.85
2024-02-23T13:09:33.873Z,1.77
2024-02-23T13:12:00.685Z,1.49
2024-02-23T13:14:27.400Z,1.56
2024-02-23T13:16:54.179Z,1.30
2024-02-23T13:19:20.779Z,1.28
2024-02-23T13:21:47.560Z,1.69
2024-02-23T13:24:14.201Z,1.62
2024-02-23T13:26:40.745Z,2.29
2024-02-23T13:29:07.991Z,2.64
2024-02-23T13:31:34.722Z,1.23
2024-02-23T13:34:01.441Z,1.76
2024-02-23T13:36:28.081Z,2.41
2024-02-23T13:38:55.433Z,2.62
2024-02-23T13:41:22.957Z,1.64
2024-02-23T13:43:49.529Z,1.55
2024-02-23T13:46:16.109Z,1.86
2024-02-23T13:48:42.863Z,3.02
2024-02-23T13:51:09.739Z,3.69
2024-02-23T13:53:38.466Z,1.21
2024-02-23T13:56:05.723Z,1.30
2024-02-23T13:58:32.408Z,1.20
2024-02-23T14:00:59.304Z,1.27
2024-02-23T14:03:26.196Z,1.36
2024-02-23T14:05:52.967Z,1.48
2024-02-23T14:08:19.751Z,1.72
2024-02-23T14:10:46.561Z,1.30
2024-02-23T14:13:13.776Z,1.31
2024-02-23T14:15:40.381Z,1.40
2024-02-23T14:18:07.117Z,1.37
2024-02-23T14:20:33.741Z,1.44
2024-02-23T14:23:00.387Z,1.66
2024-02-23T14:25:27.100Z,1.45
2024-02-23T14:27:53.810Z,1.46
2024-02-23T14:30:20.384Z,1.50
2024-02-23T14:32:47.419Z,1.46
2024-02-23T14:35:14.551Z,2.01
2024-02-23T14:37:41.444Z,2.86
2024-02-23T14:40:09.012Z,2.66
2024-02-23T14:42:35.699Z,1.94
2024-02-23T14:45:02.219Z,3.27
2024-02-23T14:47:32.630Z,2.94
2024-02-23T14:50:06.283Z,2.46
2024-02-23T14:52:33.065Z,3.17
2024-02-23T14:54:59.564Z,9.09
2024-02-23T14:57:26.249Z,3.41
2024-02-23T14:59:53.082Z,2.10
2024-02-23T15:02:23.974Z,2.09
2024-02-23T15:04:50.682Z,1.65
2024-02-23T15:07:17.749Z,2.25
2024-02-23T15:09:44.434Z,1.23
2024-02-23T15:12:12.881Z,1.17
2024-02-23T15:14:39.545Z,1.33
2024-02-23T15:17:06.416Z,1.16
2024-02-23T15:19:33.195Z,1.12
2024-02-23T15:22:00.464Z,1.27
2024-02-23T15:24:27.158Z,2.22
2024-02-23T15:26:53.749Z,2.89
2024-02-23T15:29:20.377Z,1.99
2024-02-23T15:31:47.303Z,1.54
2024-02-23T15:34:14.009Z,1.38
2024-02-23T15:36:40.828Z,1.19
2024-02-23T15:39:08.092Z,1.37
2024-02-23T15:41:35.939Z,1.46
2024-02-23T15:44:03.972Z,1.17
2024-02-23T15:46:32.082Z,1.17
2024-02-23T15:48:58.783Z,1.02
2024-02-23T15:51:37.241Z,1.01
2024-02-23T15:54:13.489Z,1.15
2024-02-23T15:56:41.190Z,1.19
2024-02-23T15:59:09.322Z,1.29
2024-02-23T16:01:37.954Z,1.29
2024-02-23T16:04:05.725Z,1.27
2024-02-23T16:06:35.337Z,1.36
2024-02-23T16:09:03.567Z,1.35
2024-02-23T16:11:33.079Z,1.30
2024-02-23T16:14:00.658Z,1.46
2024-02-23T16:16:27.326Z,2.07
2024-02-23T16:18:53.997Z,2.08
2024-02-23T16:21:20.666Z,1.81
2024-02-23T16:23:47.468Z,1.94
2024-02-23T16:26:14.489Z,2.27
2024-02-23T16:28:41.134Z,2.27
2024-02-23T16:31:07.680Z,2.43
2024-02-23T16:33:34.416Z,2.43
2024-02-23T16:36:02.342Z,2.56
2024-02-23T16:38:29.027Z,2.76
2024-02-23T16:40:56.042Z,3.10
2024-02-23T16:43:22.751Z,3.40
2024-02-23T16:45:49.375Z,3.64
2024-02-23T16:48:17.079Z,3.38
2024-02-23T16:50:46.868Z,3.44
2024-02-23T16:53:14.500Z,3.37
2024-02-23T16:55:41.277Z,3.08
2024-02-23T16:58:08.494Z,3.11
2024-02-23T17:00:35.076Z,2.92
2024-02-23T17:03:01.977Z,2.69
2024-02-23T17:05:28.926Z,2.77
2024-02-23T17:07:57.124Z,3.08
2024-02-23T17:10:24.613Z,3.16
2024-02-23T17:12:53.793Z,4.16
2024-02-23T17:15:20.588Z,4.82
2024-02-23T17:17:48.003Z,3.32
2024-02-23T17:20:15.101Z,3.08
2024-02-23T17:22:42.326Z,3.28
2024-02-23T17:25:09.362Z,3.09
2024-02-23T17:27:36.240Z,6.71
2024-02-23T17:30:03.133Z,10.38
2024-02-23T17:32:29.787Z,5.77
2024-02-23T17:34:56.392Z,5.64
2024-02-23T17:37:25.801Z,4.66
2024-02-23T17:39:54.979Z,5.73
2024-02-23T17:42:21.980Z,6.96
2024-02-23T17:44:49.035Z,3.06
2024-02-23T17:47:17.478Z,3.48
2024-02-23T17:49:46.985Z,4.29
2024-02-23T17:52:13.702Z,1.42
2024-02-23T17:54:40.545Z,1.90
2024-02-23T17:57:07.350Z,4.10
2024-02-23T17:59:35.220Z,4.92
2024-02-23T18:02:02.252Z,3.60
2024-02-23T18:04:28.911Z,5.43
2024-02-23T18:06:55.906Z,3.39
2024-02-23T18:09:22.545Z,2.89
2024-02-23T18:11:49.201Z,2.61
2024-02-23T18:14:15.955Z,6.43
2024-02-23T18:16:46.327Z,2.37
2024-02-23T18:19:13.232Z,3.13
2024-02-23T18:21:39.879Z,1.81
2024-02-23T18:24:07.773Z,3.20
2024-02-23T18:26:35.864Z,1.60
2024-02-23T18:29:03.642Z,1.42
2024-02-23T18:31:30.423Z,1.94
2024-02-23T18:33:58.354Z,1.94
2024-02-23T18:36:25.382Z,2.62
2024-02-23T18:38:52.639Z,2.06
2024-02-23T18:41:19.371Z,1.66
2024-02-23T18:43:48.412Z,1.35
2024-02-23T18:46:15.109Z,1.08
2024-02-23T18:48:41.969Z,1.33
2024-02-23T18:51:09.492Z,3.08
2024-02-23T18:53:36.576Z,4.20
2024-02-23T18:56:06.594Z,4.42
2024-02-23T18:58:33.956Z,2.17
2024-02-23T19:01:00.963Z,1.44
2024-02-23T19:03:27.629Z,1.25
2024-02-23T19:05:54.681Z,1.19
2024-02-23T19:08:21.402Z,1.18
2024-02-23T19:10:47.998Z,1.23
2024-02-23T19:13:14.833Z,1.32
2024-02-23T19:15:41.665Z,1.28
2024-02-23T19:18:08.380Z,1.49
2024-02-23T19:20:35.321Z,2.43
2024-02-23T19:23:04.064Z,1.98
2024-02-23T19:25:31.224Z,1.33
2024-02-23T19:27:59.269Z,1.23
2024-02-23T19:30:25.851Z,1.14
2024-02-23T19:32:52.578Z,1.17
2024-02-23T19:35:19.422Z,1.27
2024-02-23T19:37:46.035Z,1.40
2024-02-23T19:40:14.591Z,1.47
2024-02-23T19:42:41.415Z,1.30
2024-02-23T19:45:08.490Z,1.43
2024-02-23T19:47:35.298Z,1.41
2024-02-23T19:50:02.148Z,1.36
2024-02-23T19:52:30.699Z,1.57
2024-02-23T19:54:57.296Z,1.45
2024-02-23T19:57:27.569Z,1.54
2024-02-23T19:59:54.727Z,1.50
2024-02-23T20:02:21.418Z,1.48
2024-02-23T20:04:53.569Z,1.55
2024-02-23T20:07:22.226Z,1.48
2024-02-23T20:09:49.002Z,1.38
2024-02-23T20:12:15.955Z,1.45
2024-02-23T20:14:42.763Z,1.28
2024-02-23T20:17:10.063Z,1.41
2024-02-23T20:19:37.104Z,1.28
2024-02-23T20:22:05.179Z,1.38
2024-02-23T20:24:32.113Z,1.23
2024-02-23T20:27:01.174Z,1.35
2024-02-23T20:31:58.423Z,1.31
2024-02-23T20:34:24.986Z,2.92
2024-02-23T20:36:51.590Z,2.22
2024-02-23T20:39:18.173Z,1.33
2024-02-23T20:41:47.092Z,1.30
2024-02-23T20:44:13.851Z,1.32
2024-02-23T20:46:41.130Z,1.20
2024-02-23T20:49:07.856Z,1.33
2024-02-23T20:51:34.457Z,1.87
2024-02-23T20:54:00.998Z,2.73
2024-02-23T20:56:32.012Z,3.82
2024-02-23T20:58:59.229Z,3.77
2024-02-23T21:01:26.939Z,1.99
2024-02-23T21:03:53.748Z,1.46
2024-02-23T21:06:20.741Z,1.50
2024-02-23T21:08:48.386Z,1.26
2024-02-23T21:11:16.373Z,1.32
2024-02-23T21:13:42.997Z,1.65
2024-02-23T21:16:09.548Z,2.39
2024-02-23T21:18:36.419Z,2.37
2024-02-23T21:21:02.979Z,2.50
2024-02-23T21:23:29.585Z,2.24
2024-02-23T21:25:56.168Z,1.82
2024-02-23T21:28:22.846Z,1.49
2024-02-23T21:30:54.519Z,1.65
2024-02-23T21:33:21.119Z,1.73
2024-02-23T21:35:47.862Z,1.79
2024-02-23T21:38:14.845Z,1.52
2024-02-23T21:40:41.406Z,2.39
2024-02-23T21:43:08.085Z,1.82
2024-02-23T21:45:34.905Z,1.39
2024-02-23T21:48:01.757Z,1.44
2024-02-23T21:50:28.423Z,2.94
2024-02-23T21:52:54.971Z,4.51
2024-02-23T21:55:24.865Z,2.46
2024-02-23T21:57:51.656Z,2.07
2024-02-23T22:00:19.245Z,1.65
2024-02-23T22:02:46.117Z,1.92
2024-02-23T22:05:12.870Z,1.80
2024-02-23T22:07:40.239Z,2.11
2024-02-23T22:10:07.658Z,2.22
2024-02-23T22:12:34.264Z,2.25
2024-02-23T22:15:04.027Z,2.63
2024-02-23T22:17:30.825Z,3.69
2024-02-23T22:19:57.554Z,21.40
2024-02-23T22:22:26.326Z,14.68
2024-02-23T22:24:57.715Z,9.29
2024-02-23T22:27:24.341Z,8.64
2024-02-23T22:29:52.127Z,12.58
2024-02-23T22:32:21.539Z,10.79
2024-02-23T22:34:49.239Z,6.77
2024-02-23T22:37:16.688Z,5.50
2024-02-23T22:39:43.761Z,5.35
2024-02-23T22:42:11.359Z,5.02
2024-02-23T22:44:38.246Z,4.41
2024-02-23T22:47:05.519Z,4.58
2024-02-23T22:49:32.169Z,4.45
2024-02-23T22:51:58.822Z,5.15
2024-02-23T22:54:26.070Z,5.63
2024-02-23T22:56:52.594Z,5.50
2024-02-23T22:59:19.386Z,5.76
2024-02-23T23:01:46.057Z,5.71
2024-02-23T23:04:12.750Z,5.42
2024-02-23T23:06:41.944Z,5.69
2024-02-23T23:09:10.566Z,5.20
2024-02-23T23:11:38.315Z,5.22
2024-02-23T23:14:05.917Z,5.34
2024-02-23T23:16:32.522Z,5.42
2024-02-23T23:18:59.416Z,4.70
2024-02-23T23:21:26.160Z,4.58
2024-02-23T23:23:53.046Z,4.84
2024-02-23T23:26:20.467Z,3.91
2024-02-23T23:28:48.515Z,3.03
2024-02-23T23:31:17.828Z,3.95
2024-02-23T23:33:45.957Z,4.49
2024-02-23T23:36:12.683Z,5.51
2024-02-23T23:38:43.436Z,6.57
2024-02-23T23:41:10.398Z,6.28
2024-02-23T23:43:37.139Z,5.57
2024-02-23T23:46:04.561Z,4.13
2024-02-23T23:48:32.461Z,2.63
2024-02-23T23:50:59.426Z,2.03
2024-02-23T23:53:27.984Z,2.03
2024-02-23T23:55:54.641Z,2.03
2024-02-23T23:58:21.829Z,1.71
